sensor_id;sensor_type;location;lat;lon;timestamp;P1;durP1;ratioP1;P2;durP2;ratioP2
52854;SDS011;38719;51.418;7.286;2022-08-21T00:01:39;13.60;;;5.32;;
52854;SDS011;38719;51.418;7.286;2022-08-21T00:04:07;11.52;;;5.05;;
52854;SDS011;38719;51.418;7.286;2022-08-21T00:06:35;12.07;;;4.80;;
52854;SDS011;38719;51.418;7.286;2022-08-21T00:09:05;15.73;;;5.40;;
52854;SDS011;38719;51.418;7.286;2022-08-21T00:11:36;12.23;;;4.80;;
52854;SDS011;38719;51.418;7.286;2022-08-21T00:14:06;8.65;;;4.97;;
52854;SDS011;38719;51.418;7.286;2022-08-21T00:16:36;10.80;;;5.20;;
52854;SDS011;38719;51.418;7.286;2022-08-21T00:19:05;11.95;;;5.22;;
52854;SDS011;38719;51.418;7.286;2022-08-21T00:21:33;11.38;;;4.90;;
52854;SDS011;38719;51.418;7.286;2022-08-21T00:24:02;13.70;;;5.28;;
52854;SDS011;38719;51.418;7.286;2022-08-21T00:26:30;15.55;;;5.18;;
52854;SDS011;38719;51.418;7.286;2022-08-21T00:28:59;8.55;;;4.53;;
52854;SDS011;38719;51.418;7.286;2022-08-21T00:31:27;12.80;;;5.35;;
52854;SDS011;38719;51.418;7.286;2022-08-21T00:33:54;11.38;;;4.82;;
52854;SDS011;38719;51.418;7.286;2022-08-21T00:36:26;15.88;;;5.78;;
52854;SDS011;38719;51.418;7.286;2022-08-21T00:38:53;12.07;;;5.30;;
52854;SDS011;38719;51.418;7.286;2022-08-21T00:41:21;9.70;;;4.72;;
52854;SDS011;38719;51.418;7.286;2022-08-21T00:44:04;8.88;;;4.90;;
52854;SDS011;38719;51.418;7.286;2022-08-21T00:46:33;9.15;;;4.63;;
52854;SDS011;38719;51.418;7.286;2022-08-21T00:49:01;10.68;;;4.63;;
52854;SDS011;38719;51.418;7.286;2022-08-21T00:51:32;13.63;;;5.28;;
52854;SDS011;38719;51.418;7.286;2022-08-21T00:54:04;10.88;;;4.95;;
52854;SDS011;38719;51.418;7.286;2022-08-21T00:56:44;8.05;;;4.72;;
52854;SDS011;38719;51.418;7.286;2022-08-21T00:59:14;11.55;;;6.38;;
52854;SDS011;38719;51.418;7.286;2022-08-21T01:01:43;17.20;;;5.03;;
52854;SDS011;38719;51.418;7.286;2022-08-21T01:04:11;10.40;;;4.90;;
52854;SDS011;38719;51.418;7.286;2022-08-21T01:06:39;9.50;;;4.65;;
52854;SDS011;38719;51.418;7.286;2022-08-21T01:09:06;14.48;;;5.28;;
52854;SDS011;38719;51.418;7.286;2022-08-21T01:11:34;6.72;;;4.78;;
52854;SDS011;38719;51.418;7.286;2022-08-21T01:14:03;10.65;;;6.07;;
52854;SDS011;38719;51.418;7.286;2022-08-21T01:16:32;9.77;;;4.35;;
52854;SDS011;38719;51.418;7.286;2022-08-21T01:19:00;10.32;;;4.53;;
52854;SDS011;38719;51.418;7.286;2022-08-21T01:21:29;12.38;;;4.95;;
52854;SDS011;38719;51.418;7.286;2022-08-21T01:23:57;11.32;;;5.28;;
52854;SDS011;38719;51.418;7.286;2022-08-21T01:26:27;9.07;;;4.85;;
52854;SDS011;38719;51.418;7.286;2022-08-21T01:31:30;11.02;;;4.72;;
52854;SDS011;38719;51.418;7.286;2022-08-21T01:33:59;18.80;;;6.10;;
52854;SDS011;38719;51.418;7.286;2022-08-21T01:36:28;9.48;;;4.93;;
52854;SDS011;38719;51.418;7.286;2022-08-21T01:38:57;11.95;;;5.10;;
52854;SDS011;38719;51.418;7.286;2022-08-21T01:41:24;12.35;;;4.78;;
52854;SDS011;38719;51.418;7.286;2022-08-21T01:43:52;11.52;;;4.82;;
52854;SDS011;38719;51.418;7.286;2022-08-21T01:46:20;14.13;;;5.55;;
52854;SDS011;38719;51.418;7.286;2022-08-21T01:48:48;10.02;;;4.82;;
52854;SDS011;38719;51.418;7.286;2022-08-21T01:51:15;11.73;;;4.88;;
52854;SDS011;38719;51.418;7.286;2022-08-21T01:53:45;10.93;;;4.85;;
52854;SDS011;38719;51.418;7.286;2022-08-21T01:56:14;13.38;;;4.85;;
52854;SDS011;38719;51.418;7.286;2022-08-21T01:58:44;13.70;;;4.90;;
52854;SDS011;38719;51.418;7.286;2022-08-21T02:01:15;11.07;;;4.72;;
52854;SDS011;38719;51.418;7.286;2022-08-21T02:03:43;9.20;;;5.07;;
52854;SDS011;38719;51.418;7.286;2022-08-21T02:06:12;9.23;;;5.10;;
52854;SDS011;38719;51.418;7.286;2022-08-21T02:08:43;11.63;;;5.15;;
52854;SDS011;38719;51.418;7.286;2022-08-21T02:11:13;12.40;;;5.03;;
52854;SDS011;38719;51.418;7.286;2022-08-21T02:13:41;18.52;;;6.05;;
52854;SDS011;38719;51.418;7.286;2022-08-21T02:16:10;8.68;;;5.40;;
52854;SDS011;38719;51.418;7.286;2022-08-21T02:18:44;11.32;;;5.55;;
52854;SDS011;38719;51.418;7.286;2022-08-21T02:21:11;11.82;;;6.03;;
52854;SDS011;38719;51.418;7.286;2022-08-21T02:23:39;10.77;;;5.70;;
52854;SDS011;38719;51.418;7.286;2022-08-21T02:26:08;14.90;;;6.38;;
52854;SDS011;38719;51.418;7.286;2022-08-21T02:28:36;8.63;;;5.65;;
52854;SDS011;38719;51.418;7.286;2022-08-21T02:31:05;10.88;;;5.82;;
52854;SDS011;38719;51.418;7.286;2022-08-21T02:33:33;13.85;;;5.78;;
52854;SDS011;38719;51.418;7.286;2022-08-21T02:36:00;12.50;;;6.00;;
52854;SDS011;38719;51.418;7.286;2022-08-21T02:38:30;9.18;;;5.32;;
52854;SDS011;38719;51.418;7.286;2022-08-21T02:41:00;12.48;;;5.72;;
52854;SDS011;38719;51.418;7.286;2022-08-21T02:43:29;10.45;;;6.10;;
52854;SDS011;38719;51.418;7.286;2022-08-21T02:45:57;9.60;;;5.38;;
52854;SDS011;38719;51.418;7.286;2022-08-21T02:48:26;10.82;;;5.68;;
52854;SDS011;38719;51.418;7.286;2022-08-21T02:50:55;14.02;;;6.15;;
52854;SDS011;38719;51.418;7.286;2022-08-21T02:53:24;14.45;;;5.85;;
52854;SDS011;38719;51.418;7.286;2022-08-21T02:55:52;10.00;;;5.63;;
52854;SDS011;38719;51.418;7.286;2022-08-21T02:58:21;15.13;;;6.03;;
52854;SDS011;38719;51.418;7.286;2022-08-21T03:00:53;10.75;;;6.38;;
52854;SDS011;38719;51.418;7.286;2022-08-21T03:03:21;15.15;;;6.18;;
52854;SDS011;38719;51.418;7.286;2022-08-21T03:05:49;12.98;;;6.00;;
52854;SDS011;38719;51.418;7.286;2022-08-21T03:08:17;12.20;;;6.00;;
52854;SDS011;38719;51.418;7.286;2022-08-21T03:10:46;11.05;;;5.30;;
52854;SDS011;38719;51.418;7.286;2022-08-21T03:13:15;10.68;;;5.88;;
52854;SDS011;38719;51.418;7.286;2022-08-21T03:15:43;13.77;;;6.20;;
52854;SDS011;38719;51.418;7.286;2022-08-21T03:18:16;13.35;;;6.45;;
52854;SDS011;38719;51.418;7.286;2022-08-21T03:20:44;14.80;;;6.65;;
52854;SDS011;38719;51.418;7.286;2022-08-21T03:23:13;14.20;;;6.15;;
52854;SDS011;38719;51.418;7.286;2022-08-21T03:25:45;13.38;;;5.90;;
52854;SDS011;38719;51.418;7.286;2022-08-21T03:28:15;13.40;;;6.15;;
52854;SDS011;38719;51.418;7.286;2022-08-21T03:30:46;14.30;;;7.22;;
52854;SDS011;38719;51.418;7.286;2022-08-21T03:33:17;16.80;;;6.35;;
52854;SDS011;38719;51.418;7.286;2022-08-21T03:35:50;12.32;;;5.65;;
52854;SDS011;38719;51.418;7.286;2022-08-21T03:38:24;10.25;;;5.70;;
52854;SDS011;38719;51.418;7.286;2022-08-21T03:40:52;8.35;;;5.72;;
52854;SDS011;38719;51.418;7.286;2022-08-21T03:43:20;11.07;;;6.03;;
52854;SDS011;38719;51.418;7.286;2022-08-21T03:45:48;15.98;;;6.38;;
52854;SDS011;38719;51.418;7.286;2022-08-21T03:48:19;9.82;;;6.32;;
52854;SDS011;38719;51.418;7.286;2022-08-21T03:50:48;14.40;;;6.30;;
52854;SDS011;38719;51.418;7.286;2022-08-21T03:53:19;9.73;;;6.00;;
52854;SDS011;38719;51.418;7.286;2022-08-21T03:55:48;10.98;;;5.95;;
52854;SDS011;38719;51.418;7.286;2022-08-21T03:58:20;12.57;;;6.30;;
52854;SDS011;38719;51.418;7.286;2022-08-21T04:00:50;13.38;;;5.88;;
52854;SDS011;38719;51.418;7.286;2022-08-21T04:03:22;14.15;;;6.28;;
52854;SDS011;38719;51.418;7.286;2022-08-21T04:05:50;15.85;;;6.65;;
52854;SDS011;38719;51.418;7.286;2022-08-21T04:08:18;13.93;;;6.20;;
52854;SDS011;38719;51.418;7.286;2022-08-21T04:10:46;12.80;;;6.05;;
52854;SDS011;38719;51.418;7.286;2022-08-21T04:13:16;11.30;;;6.10;;
52854;SDS011;38719;51.418;7.286;2022-08-21T04:15:44;13.80;;;6.88;;
52854;SDS011;38719;51.418;7.286;2022-08-21T04:18:11;17.15;;;7.72;;
52854;SDS011;38719;51.418;7.286;2022-08-21T04:20:41;13.80;;;6.50;;
52854;SDS011;38719;51.418;7.286;2022-08-21T04:23:15;14.68;;;6.65;;
52854;SDS011;38719;51.418;7.286;2022-08-21T04:25:49;10.93;;;7.15;;
52854;SDS011;38719;51.418;7.286;2022-08-21T04:28:17;13.45;;;6.70;;
52854;SDS011;38719;51.418;7.286;2022-08-21T04:30:45;11.57;;;6.00;;
52854;SDS011;38719;51.418;7.286;2022-08-21T04:33:13;8.80;;;6.20;;
52854;SDS011;38719;51.418;7.286;2022-08-21T04:35:42;8.70;;;5.70;;
52854;SDS011;38719;51.418;7.286;2022-08-21T04:38:10;9.65;;;5.72;;
52854;SDS011;38719;51.418;7.286;2022-08-21T04:40:37;15.40;;;5.70;;
52854;SDS011;38719;51.418;7.286;2022-08-21T04:43:06;11.50;;;6.07;;
52854;SDS011;38719;51.418;7.286;2022-08-21T04:45:36;16.50;;;6.20;;
52854;SDS011;38719;51.418;7.286;2022-08-21T04:48:06;9.73;;;6.55;;
52854;SDS011;38719;51.418;7.286;2022-08-21T04:50:40;11.23;;;6.17;;
52854;SDS011;38719;51.418;7.286;2022-08-21T04:53:14;12.13;;;6.17;;
52854;SDS011;38719;51.418;7.286;2022-08-21T04:55:45;16.45;;;5.97;;
52854;SDS011;38719;51.418;7.286;2022-08-21T04:58:15;9.65;;;5.85;;
52854;SDS011;38719;51.418;7.286;2022-08-21T05:00:45;10.50;;;5.93;;
52854;SDS011;38719;51.418;7.286;2022-08-21T05:03:14;12.68;;;6.25;;
52854;SDS011;38719;51.418;7.286;2022-08-21T05:05:45;8.30;;;5.75;;
52854;SDS011;38719;51.418;7.286;2022-08-21T05:08:14;11.40;;;5.97;;
52854;SDS011;38719;51.418;7.286;2022-08-21T05:10:46;8.85;;;5.70;;
52854;SDS011;38719;51.418;7.286;2022-08-21T05:13:13;9.25;;;5.40;;
52854;SDS011;38719;51.418;7.286;2022-08-21T05:15:41;12.23;;;6.03;;
52854;SDS011;38719;51.418;7.286;2022-08-21T05:18:09;13.93;;;5.88;;
52854;SDS011;38719;51.418;7.286;2022-08-21T05:20:37;14.32;;;5.65;;
52854;SDS011;38719;51.418;7.286;2022-08-21T05:23:07;11.63;;;5.72;;
52854;SDS011;38719;51.418;7.286;2022-08-21T05:25:36;12.57;;;5.63;;
52854;SDS011;38719;51.418;7.286;2022-08-21T05:28:04;13.10;;;5.30;;
52854;SDS011;38719;51.418;7.286;2022-08-21T05:30:33;9.90;;;5.85;;
52854;SDS011;38719;51.418;7.286;2022-08-21T05:33:01;11.95;;;5.47;;
52854;SDS011;38719;51.418;7.286;2022-08-21T05:35:30;15.27;;;5.47;;
52854;SDS011;38719;51.418;7.286;2022-08-21T05:37:59;12.45;;;5.55;;
52854;SDS011;38719;51.418;7.286;2022-08-21T05:40:28;10.10;;;5.20;;
52854;SDS011;38719;51.418;7.286;2022-08-21T05:42:56;10.02;;;5.43;;
52854;SDS011;38719;51.418;7.286;2022-08-21T05:45:27;15.63;;;5.55;;
52854;SDS011;38719;51.418;7.286;2022-08-21T05:48:09;11.30;;;5.40;;
52854;SDS011;38719;51.418;7.286;2022-08-21T05:50:38;14.55;;;5.53;;
52854;SDS011;38719;51.418;7.286;2022-08-21T05:53:06;14.88;;;5.85;;
52854;SDS011;38719;51.418;7.286;2022-08-21T05:55:37;11.07;;;5.47;;
52854;SDS011;38719;51.418;7.286;2022-08-21T06:00:38;16.48;;;7.45;;
52854;SDS011;38719;51.418;7.286;2022-08-21T06:03:10;12.90;;;6.07;;
52854;SDS011;38719;51.418;7.286;2022-08-21T06:05:38;15.52;;;6.07;;
52854;SDS011;38719;51.418;7.286;2022-08-21T06:08:06;9.30;;;5.50;;
52854;SDS011;38719;51.418;7.286;2022-08-21T06:10:34;12.93;;;6.05;;
52854;SDS011;38719;51.418;7.286;2022-08-21T06:13:03;12.23;;;5.80;;
52854;SDS011;38719;51.418;7.286;2022-08-21T06:15:30;9.70;;;5.78;;
52854;SDS011;38719;51.418;7.286;2022-08-21T06:17:58;11.40;;;5.80;;
52854;SDS011;38719;51.418;7.286;2022-08-21T06:20:26;9.20;;;5.20;;
52854;SDS011;38719;51.418;7.286;2022-08-21T06:22:54;11.55;;;5.43;;
52854;SDS011;38719;51.418;7.286;2022-08-21T06:25:22;12.90;;;6.22;;
52854;SDS011;38719;51.418;7.286;2022-08-21T06:27:50;13.77;;;5.13;;
52854;SDS011;38719;51.418;7.286;2022-08-21T06:30:19;11.90;;;5.80;;
52854;SDS011;38719;51.418;7.286;2022-08-21T06:32:47;16.30;;;5.82;;
52854;SDS011;38719;51.418;7.286;2022-08-21T06:35:15;11.93;;;6.30;;
52854;SDS011;38719;51.418;7.286;2022-08-21T06:37:42;14.90;;;6.47;;
52854;SDS011;38719;51.418;7.286;2022-08-21T06:40:10;19.05;;;7.95;;
52854;SDS011;38719;51.418;7.286;2022-08-21T06:42:39;17.42;;;7.30;;
52854;SDS011;38719;51.418;7.286;2022-08-21T06:45:09;16.42;;;8.35;;
52854;SDS011;38719;51.418;7.286;2022-08-21T06:47:38;18.13;;;8.23;;
52854;SDS011;38719;51.418;7.286;2022-08-21T06:50:06;16.00;;;8.80;;
52854;SDS011;38719;51.418;7.286;2022-08-21T06:52:35;22.02;;;9.63;;
52854;SDS011;38719;51.418;7.286;2022-08-21T06:55:04;20.35;;;9.13;;
52854;SDS011;38719;51.418;7.286;2022-08-21T06:57:37;16.13;;;9.18;;
52854;SDS011;38719;51.418;7.286;2022-08-21T07:00:05;19.20;;;9.18;;
52854;SDS011;38719;51.418;7.286;2022-08-21T07:02:34;19.83;;;9.27;;
52854;SDS011;38719;51.418;7.286;2022-08-21T07:05:08;17.00;;;9.38;;
52854;SDS011;38719;51.418;7.286;2022-08-21T07:07:43;15.80;;;8.55;;
52854;SDS011;38719;51.418;7.286;2022-08-21T07:10:11;18.35;;;9.57;;
52854;SDS011;38719;51.418;7.286;2022-08-21T07:12:48;18.75;;;9.40;;
52854;SDS011;38719;51.418;7.286;2022-08-21T07:15:16;16.35;;;8.82;;
52854;SDS011;38719;51.418;7.286;2022-08-21T07:17:44;17.45;;;9.40;;
52854;SDS011;38719;51.418;7.286;2022-08-21T07:20:13;25.67;;;8.75;;
52854;SDS011;38719;51.418;7.286;2022-08-21T07:22:40;18.35;;;8.55;;
52854;SDS011;38719;51.418;7.286;2022-08-21T07:25:08;20.50;;;8.90;;
52854;SDS011;38719;51.418;7.286;2022-08-21T07:27:36;18.70;;;8.55;;
52854;SDS011;38719;51.418;7.286;2022-08-21T07:30:04;14.15;;;8.18;;
52854;SDS011;38719;51.418;7.286;2022-08-21T07:32:33;17.58;;;8.95;;
52854;SDS011;38719;51.418;7.286;2022-08-21T07:35:00;14.45;;;8.57;;
52854;SDS011;38719;51.418;7.286;2022-08-21T07:37:29;18.92;;;9.32;;
52854;SDS011;38719;51.418;7.286;2022-08-21T07:39:57;25.55;;;9.02;;
52854;SDS011;38719;51.418;7.286;2022-08-21T07:42:25;14.65;;;8.52;;
52854;SDS011;38719;51.418;7.286;2022-08-21T07:44:54;19.27;;;9.30;;
52854;SDS011;38719;51.418;7.286;2022-08-21T07:47:22;37.58;;;9.73;;
52854;SDS011;38719;51.418;7.286;2022-08-21T07:52:36;14.52;;;6.93;;
52854;SDS011;38719;51.418;7.286;2022-08-21T07:55:04;12.27;;;7.43;;
52854;SDS011;38719;51.418;7.286;2022-08-21T07:57:32;16.75;;;6.63;;
52854;SDS011;38719;51.418;7.286;2022-08-21T08:00:00;15.23;;;6.05;;
52854;SDS011;38719;51.418;7.286;2022-08-21T08:02:28;11.85;;;5.78;;
52854;SDS011;38719;51.418;7.286;2022-08-21T08:04:58;24.63;;;6.00;;
52854;SDS011;38719;51.418;7.286;2022-08-21T08:07:26;11.18;;;4.68;;
52854;SDS011;38719;51.418;7.286;2022-08-21T08:09:55;12.07;;;4.45;;
52854;SDS011;38719;51.418;7.286;2022-08-21T08:12:22;12.75;;;4.80;;
52854;SDS011;38719;51.418;7.286;2022-08-21T08:14:55;10.77;;;4.28;;
52854;SDS011;38719;51.418;7.286;2022-08-21T08:17:23;9.48;;;3.78;;
52854;SDS011;38719;51.418;7.286;2022-08-21T08:19:51;9.77;;;3.45;;
52854;SDS011;38719;51.418;7.286;2022-08-21T08:22:21;13.02;;;3.95;;
52854;SDS011;38719;51.418;7.286;2022-08-21T08:24:50;9.90;;;3.72;;
52854;SDS011;38719;51.418;7.286;2022-08-21T08:27:20;9.40;;;3.55;;
52854;SDS011;38719;51.418;7.286;2022-08-21T08:29:49;11.23;;;4.47;;
52854;SDS011;38719;51.418;7.286;2022-08-21T08:32:17;9.27;;;4.00;;
52854;SDS011;38719;51.418;7.286;2022-08-21T08:34:45;10.48;;;3.78;;
52854;SDS011;38719;51.418;7.286;2022-08-21T08:37:14;12.23;;;3.78;;
52854;SDS011;38719;51.418;7.286;2022-08-21T08:39:43;9.85;;;3.20;;
52854;SDS011;38719;51.418;7.286;2022-08-21T08:42:14;12.23;;;4.93;;
52854;SDS011;38719;51.418;7.286;2022-08-21T08:45:02;14.05;;;3.58;;
52854;SDS011;38719;51.418;7.286;2022-08-21T08:47:32;9.00;;;3.97;;
52854;SDS011;38719;51.418;7.286;2022-08-21T08:50:05;11.85;;;3.08;;
52854;SDS011;38719;51.418;7.286;2022-08-21T08:52:39;9.50;;;3.40;;
52854;SDS011;38719;51.418;7.286;2022-08-21T08:55:11;6.90;;;3.15;;
52854;SDS011;38719;51.418;7.286;2022-08-21T08:57:43;9.00;;;2.90;;
52854;SDS011;38719;51.418;7.286;2022-08-21T09:00:18;9.18;;;3.70;;
52854;SDS011;38719;51.418;7.286;2022-08-21T09:02:48;7.95;;;3.05;;
52854;SDS011;38719;51.418;7.286;2022-08-21T09:05:21;6.55;;;2.97;;
52854;SDS011;38719;51.418;7.286;2022-08-21T09:07:54;6.50;;;3.17;;
52854;SDS011;38719;51.418;7.286;2022-08-21T09:10:36;7.70;;;3.30;;
52854;SDS011;38719;51.418;7.286;2022-08-21T09:13:14;9.77;;;3.30;;
52854;SDS011;38719;51.418;7.286;2022-08-21T09:15:50;9.88;;;3.28;;
52854;SDS011;38719;51.418;7.286;2022-08-21T09:18:27;9.07;;;3.10;;
52854;SDS011;38719;51.418;7.286;2022-08-21T09:21:06;8.70;;;3.20;;
52854;SDS011;38719;51.418;7.286;2022-08-21T09:26:21;8.40;;;3.10;;
52854;SDS011;38719;51.418;7.286;2022-08-21T09:28:51;10.98;;;4.65;;
52854;SDS011;38719;51.418;7.286;2022-08-21T09:31:24;11.05;;;3.20;;
52854;SDS011;38719;51.418;7.286;2022-08-21T09:33:57;8.98;;;3.50;;
52854;SDS011;38719;51.418;7.286;2022-08-21T09:36:29;9.10;;;3.55;;
52854;SDS011;38719;51.418;7.286;2022-08-21T09:39:01;10.23;;;3.35;;
52854;SDS011;38719;51.418;7.286;2022-08-21T09:41:31;9.32;;;3.10;;
52854;SDS011;38719;51.418;7.286;2022-08-21T09:44:01;10.00;;;3.03;;
52854;SDS011;38719;51.418;7.286;2022-08-21T09:46:32;8.45;;;3.20;;
52854;SDS011;38719;51.418;7.286;2022-08-21T09:49:00;9.15;;;2.95;;
52854;SDS011;38719;51.418;7.286;2022-08-21T09:51:35;8.75;;;2.83;;
52854;SDS011;38719;51.418;7.286;2022-08-21T09:54:11;7.93;;;2.90;;
52854;SDS011;38719;51.418;7.286;2022-08-21T09:56:51;5.47;;;2.50;;
52854;SDS011;38719;51.418;7.286;2022-08-21T09:59:40;12.18;;;3.35;;
52854;SDS011;38719;51.418;7.286;2022-08-21T10:02:28;6.80;;;2.78;;
52854;SDS011;38719;51.418;7.286;2022-08-21T10:04:58;11.60;;;3.08;;
52854;SDS011;38719;51.418;7.286;2022-08-21T10:07:28;8.32;;;3.08;;
52854;SDS011;38719;51.418;7.286;2022-08-21T10:09:58;10.82;;;3.42;;
52854;SDS011;38719;51.418;7.286;2022-08-21T10:12:29;5.25;;;2.50;;
52854;SDS011;38719;51.418;7.286;2022-08-21T10:15:05;12.07;;;2.88;;
52854;SDS011;38719;51.418;7.286;2022-08-21T10:17:45;10.27;;;3.33;;
52854;SDS011;38719;51.418;7.286;2022-08-21T10:20:22;12.32;;;2.95;;
52854;SDS011;38719;51.418;7.286;2022-08-21T10:23:00;9.55;;;2.55;;
52854;SDS011;38719;51.418;7.286;2022-08-21T10:25:47;7.22;;;2.80;;
52854;SDS011;38719;51.418;7.286;2022-08-21T10:28:40;9.60;;;2.95;;
52854;SDS011;38719;51.418;7.286;2022-08-21T10:31:16;7.25;;;2.70;;
52854;SDS011;38719;51.418;7.286;2022-08-21T10:33:58;7.40;;;2.67;;
52854;SDS011;38719;51.418;7.286;2022-08-21T10:36:42;6.32;;;2.40;;
52854;SDS011;38719;51.418;7.286;2022-08-21T10:39:15;5.28;;;2.70;;
52854;SDS011;38719;51.418;7.286;2022-08-21T10:42:05;8.45;;;2.45;;
52854;SDS011;38719;51.418;7.286;2022-08-21T10:44:56;9.27;;;3.00;;
52854;SDS011;38719;51.418;7.286;2022-08-21T10:47:35;10.05;;;2.40;;
52854;SDS011;38719;51.418;7.286;2022-08-21T10:50:12;6.00;;;2.45;;
52854;SDS011;38719;51.418;7.286;2022-08-21T10:52:52;7.07;;;2.47;;
52854;SDS011;38719;51.418;7.286;2022-08-21T10:55:31;7.03;;;2.03;;
52854;SDS011;38719;51.418;7.286;2022-08-21T10:58:04;6.13;;;2.30;;
52854;SDS011;38719;51.418;7.286;2022-08-21T11:00:39;7.20;;;2.80;;
52854;SDS011;38719;51.418;7.286;2022-08-21T11:03:12;4.53;;;2.13;;
52854;SDS011;38719;51.418;7.286;2022-08-21T11:05:47;8.77;;;2.60;;
52854;SDS011;38719;51.418;7.286;2022-08-21T11:08:18;8.20;;;2.42;;
52854;SDS011;38719;51.418;7.286;2022-08-21T11:10:50;4.68;;;2.45;;
52854;SDS011;38719;51.418;7.286;2022-08-21T11:13:27;6.40;;;2.50;;
52854;SDS011;38719;51.418;7.286;2022-08-21T11:16:05;13.38;;;2.40;;
52854;SDS011;38719;51.418;7.286;2022-08-21T11:18:38;7.07;;;2.53;;
52854;SDS011;38719;51.418;7.286;2022-08-21T11:21:18;6.15;;;2.45;;
52854;SDS011;38719;51.418;7.286;2022-08-21T11:23:57;2.45;;;1.60;;
52854;SDS011;38719;51.418;7.286;2022-08-21T11:26:34;6.00;;;1.85;;
52854;SDS011;38719;51.418;7.286;2022-08-21T11:29:08;5.35;;;2.03;;
52854;SDS011;38719;51.418;7.286;2022-08-21T11:31:44;5.75;;;2.00;;
52854;SDS011;38719;51.418;7.286;2022-08-21T11:34:29;4.93;;;1.98;;
52854;SDS011;38719;51.418;7.286;2022-08-21T11:37:10;6.28;;;2.72;;
52854;SDS011;38719;51.418;7.286;2022-08-21T11:39:52;6.03;;;2.22;;
52854;SDS011;38719;51.418;7.286;2022-08-21T11:42:31;3.95;;;2.10;;
52854;SDS011;38719;51.418;7.286;2022-08-21T11:45:10;2.92;;;1.75;;
52854;SDS011;38719;51.418;7.286;2022-08-21T11:47:53;3.10;;;2.10;;
52854;SDS011;38719;51.418;7.286;2022-08-21T11:50:28;5.55;;;1.70;;
52854;SDS011;38719;51.418;7.286;2022-08-21T11:53:03;4.00;;;2.10;;
52854;SDS011;38719;51.418;7.286;2022-08-21T11:55:36;4.95;;;1.85;;
52854;SDS011;38719;51.418;7.286;2022-08-21T11:58:09;16.50;;;2.40;;
52854;SDS011;38719;51.418;7.286;2022-08-21T12:00:43;4.78;;;2.00;;
52854;SDS011;38719;51.418;7.286;2022-08-21T12:03:15;8.85;;;2.30;;
52854;SDS011;38719;51.418;7.286;2022-08-21T12:05:52;3.67;;;1.90;;
52854;SDS011;38719;51.418;7.286;2022-08-21T12:08:29;7.43;;;2.13;;
52854;SDS011;38719;51.418;7.286;2022-08-21T12:11:00;6.22;;;2.17;;
52854;SDS011;38719;51.418;7.286;2022-08-21T12:13:31;5.20;;;2.00;;
52854;SDS011;38719;51.418;7.286;2022-08-21T12:16:09;7.18;;;2.13;;
52854;SDS011;38719;51.418;7.286;2022-08-21T12:18:39;4.18;;;1.80;;
52854;SDS011;38719;51.418;7.286;2022-08-21T12:21:21;3.08;;;1.90;;
52854;SDS011;38719;51.418;7.286;2022-08-21T12:24:00;6.18;;;1.95;;
52854;SDS011;38719;51.418;7.286;2022-08-21T12:26:47;5.75;;;1.92;;
52854;SDS011;38719;51.418;7.286;2022-08-21T12:29:21;4.88;;;1.88;;
52854;SDS011;38719;51.418;7.286;2022-08-21T12:31:54;4.70;;;1.92;;
52854;SDS011;38719;51.418;7.286;2022-08-21T12:34:27;3.42;;;1.60;;
52854;SDS011;38719;51.418;7.286;2022-08-21T12:37:01;5.22;;;1.90;;
52854;SDS011;38719;51.418;7.286;2022-08-21T12:39:33;3.28;;;1.63;;
52854;SDS011;38719;51.418;7.286;2022-08-21T12:42:06;5.10;;;1.70;;
52854;SDS011;38719;51.418;7.286;2022-08-21T12:44:43;3.25;;;1.70;;
52854;SDS011;38719;51.418;7.286;2022-08-21T12:47:16;3.72;;;1.70;;
52854;SDS011;38719;51.418;7.286;2022-08-21T12:49:54;4.25;;;1.80;;
52854;SDS011;38719;51.418;7.286;2022-08-21T12:52:29;3.60;;;1.67;;
52854;SDS011;38719;51.418;7.286;2022-08-21T12:55:06;4.35;;;2.17;;
52854;SDS011;38719;51.418;7.286;2022-08-21T12:57:39;5.30;;;1.60;;
52854;SDS011;38719;51.418;7.286;2022-08-21T13:00:10;2.75;;;1.70;;
52854;SDS011;38719;51.418;7.286;2022-08-21T13:02:42;5.28;;;1.67;;
52854;SDS011;38719;51.418;7.286;2022-08-21T13:05:14;5.38;;;1.90;;
52854;SDS011;38719;51.418;7.286;2022-08-21T13:07:47;3.33;;;1.80;;
52854;SDS011;38719;51.418;7.286;2022-08-21T13:10:18;2.05;;;1.58;;
52854;SDS011;38719;51.418;7.286;2022-08-21T13:12:48;3.13;;;1.90;;
52854;SDS011;38719;51.418;7.286;2022-08-21T13:15:22;2.00;;;1.30;;
52854;SDS011;38719;51.418;7.286;2022-08-21T13:17:58;3.42;;;1.50;;
52854;SDS011;38719;51.418;7.286;2022-08-21T13:20:30;4.82;;;2.22;;
52854;SDS011;38719;51.418;7.286;2022-08-21T13:23:00;3.78;;;1.88;;
52854;SDS011;38719;51.418;7.286;2022-08-21T13:25:36;3.20;;;1.85;;
52854;SDS011;38719;51.418;7.286;2022-08-21T13:28:05;5.20;;;2.08;;
52854;SDS011;38719;51.418;7.286;2022-08-21T13:30:38;4.75;;;1.90;;
52854;SDS011;38719;51.418;7.286;2022-08-21T13:33:09;10.30;;;1.90;;
52854;SDS011;38719;51.418;7.286;2022-08-21T13:35:46;3.80;;;1.80;;
52854;SDS011;38719;51.418;7.286;2022-08-21T13:38:16;3.17;;;1.55;;
52854;SDS011;38719;51.418;7.286;2022-08-21T13:40:46;2.25;;;1.50;;
52854;SDS011;38719;51.418;7.286;2022-08-21T13:43:17;3.45;;;1.50;;
52854;SDS011;38719;51.418;7.286;2022-08-21T13:45:49;3.88;;;2.17;;
52854;SDS011;38719;51.418;7.286;2022-08-21T13:48:18;2.97;;;1.55;;
52854;SDS011;38719;51.418;7.286;2022-08-21T13:50:48;3.65;;;1.88;;
52854;SDS011;38719;51.418;7.286;2022-08-21T13:53:21;4.35;;;1.70;;
52854;SDS011;38719;51.418;7.286;2022-08-21T13:55:56;3.65;;;1.58;;
52854;SDS011;38719;51.418;7.286;2022-08-21T13:58:26;3.08;;;1.73;;
52854;SDS011;38719;51.418;7.286;2022-08-21T14:00:56;6.05;;;1.95;;
52854;SDS011;38719;51.418;7.286;2022-08-21T14:03:33;3.45;;;1.58;;
52854;SDS011;38719;51.418;7.286;2022-08-21T14:06:11;3.65;;;1.83;;
52854;SDS011;38719;51.418;7.286;2022-08-21T14:08:40;6.30;;;2.30;;
52854;SDS011;38719;51.418;7.286;2022-08-21T14:11:11;4.35;;;1.60;;
52854;SDS011;38719;51.418;7.286;2022-08-21T14:13:41;5.45;;;1.73;;
52854;SDS011;38719;51.418;7.286;2022-08-21T14:16:12;4.53;;;1.60;;
52854;SDS011;38719;51.418;7.286;2022-08-21T14:18:43;2.95;;;1.88;;
52854;SDS011;38719;51.418;7.286;2022-08-21T14:21:28;2.72;;;1.65;;
52854;SDS011;38719;51.418;7.286;2022-08-21T14:23:59;3.75;;;1.52;;
52854;SDS011;38719;51.418;7.286;2022-08-21T14:26:31;5.68;;;1.80;;
52854;SDS011;38719;51.418;7.286;2022-08-21T14:29:00;6.30;;;1.83;;
52854;SDS011;38719;51.418;7.286;2022-08-21T14:31:35;2.55;;;1.73;;
52854;SDS011;38719;51.418;7.286;2022-08-21T14:34:09;4.85;;;1.77;;
52854;SDS011;38719;51.418;7.286;2022-08-21T14:36:46;3.95;;;1.80;;
52854;SDS011;38719;51.418;7.286;2022-08-21T14:39:15;2.58;;;1.35;;
52854;SDS011;38719;51.418;7.286;2022-08-21T14:41:44;3.30;;;1.45;;
52854;SDS011;38719;51.418;7.286;2022-08-21T14:44:14;3.20;;;1.52;;
52854;SDS011;38719;51.418;7.286;2022-08-21T14:46:43;5.45;;;1.90;;
52854;SDS011;38719;51.418;7.286;2022-08-21T14:49:22;3.25;;;1.45;;
52854;SDS011;38719;51.418;7.286;2022-08-21T14:51:53;4.80;;;1.70;;
52854;SDS011;38719;51.418;7.286;2022-08-21T14:54:24;2.80;;;1.63;;
52854;SDS011;38719;51.418;7.286;2022-08-21T14:56:59;4.15;;;1.83;;
52854;SDS011;38719;51.418;7.286;2022-08-21T14:59:29;2.40;;;1.70;;
52854;SDS011;38719;51.418;7.286;2022-08-21T15:01:58;3.45;;;1.55;;
52854;SDS011;38719;51.418;7.286;2022-08-21T15:04:26;2.88;;;1.75;;
52854;SDS011;38719;51.418;7.286;2022-08-21T15:06:54;4.53;;;1.52;;
52854;SDS011;38719;51.418;7.286;2022-08-21T15:09:21;2.10;;;1.60;;
52854;SDS011;38719;51.418;7.286;2022-08-21T15:11:49;5.18;;;2.03;;
52854;SDS011;38719;51.418;7.286;2022-08-21T15:14:20;3.55;;;1.50;;
52854;SDS011;38719;51.418;7.286;2022-08-21T15:16:51;4.88;;;2.55;;